Time;durP1;ratioP1;P1;durP2;ratioP2;P2;SDS_P1;SDS_P2;PMS_P1;PMS_P2;Temp;Humidity;BMP_temperature;BMP_pressure;BME280_temperature;BME280_humidity;BME280_pressure;Samples;Min_cycle;Max_cycle;Signal;HPM_P1;HPM_P2
2022/02/19 00:00:10;;;;;;;;;2.00;2.00;;;;;6.10;79.11;100756.66;4936650;28;45190;-71
2022/02/19 00:02:35;;;;;;;;;3.50;1.00;;;;;6.09;77.63;100752.31;4936732;28;45401;-70
2022/02/19 00:05:01;;;;;;;;;3.75;1.50;;;;;6.08;79.11;100748.88;4936226;28;45402;-63
2022/02/19 00:07:26;;;;;;;;;1.00;1.00;;;;;6.07;79.02;100754.09;4937228;28;45928;-67
2022/02/19 00:09:52;;;;;;;;;3.75;1.75;;;;;6.04;78.01;100759.38;4937388;28;45460;-69
2022/02/19 00:12:17;;;;;;;;;2.50;1.25;;;;;6.03;78.55;100765.50;4936749;28;45540;-68
2022/02/19 00:14:44;;;;;;;;;3.00;1.00;;;;;6.02;79.59;100772.50;4936601;28;46275;-73
2022/02/19 00:17:10;;;;;;;;;2.50;0.75;;;;;6.01;79.58;100773.38;4936618;28;45378;-70
2022/02/19 00:19:35;;;;;;;;;2.00;1.00;;;;;5.97;78.40;100763.84;4935563;28;45595;-69
2022/02/19 00:22:00;;;;;;;;;3.75;1.75;;;;;5.94;78.44;100775.19;4937183;28;45379;-68
2022/02/19 00:24:26;;;;;;;;;4.25;1.00;;;;;5.93;79.06;100781.31;4935915;28;46095;-67
2022/02/19 00:26:51;;;;;;;;;2.75;2.00;;;;;5.90;78.19;100785.72;4936422;28;45190;-71
2022/02/19 00:29:17;;;;;;;;;3.50;1.00;;;;;5.89;80.09;100791.84;4936651;28;45244;-66
2022/02/19 00:31:42;;;;;;;;;2.00;2.00;;;;;5.88;78.00;100787.50;4936987;28;45283;-68
2022/02/19 00:34:08;;;;;;;;;3.75;1.00;;;;;5.83;79.76;100783.22;4936311;28;45331;-71
2022/02/19 00:36:34;;;;;;;;;5.25;2.00;;;;;5.86;80.54;100792.75;4934923;28;45497;-66
2022/02/19 00:39:00;;;;;;;;;6.25;2.00;;;;;5.86;80.99;100800.56;4936193;28;45345;-72
2022/02/19 00:41:25;;;;;;;;;3.00;1.00;;;;;5.84;78.86;100791.91;4936890;28;45689;-69
2022/02/19 00:43:51;;;;;;;;;3.00;1.00;;;;;5.80;80.84;100787.63;4936137;28;46407;-69
2022/02/19 00:46:17;;;;;;;;;6.25;2.25;;;;;5.83;80.00;100804.13;4935560;28;45307;-67
2022/02/19 00:48:43;;;;;;;;;10.00;3.00;;;;;5.82;79.91;100811.97;4933556;28;45968;-65
2022/02/19 00:51:08;;;;;;;;;2.25;2.00;;;;;5.77;81.20;100804.19;4931879;28;45738;-62
2022/02/19 00:53:34;;;;;;;;;6.00;1.00;;;;;5.79;80.37;100812.84;4936465;28;47266;-64
2022/02/19 00:56:00;;;;;;;;;4.50;2.00;;;;;5.79;79.80;100812.00;4938606;28;45393;-57
2022/02/19 00:58:25;;;;;;;;;3.00;2.25;;;;;5.78;78.80;100820.72;4938258;28;45580;-66
2022/02/19 01:00:50;;;;;;;;;6.50;2.00;;;;;5.75;79.44;100833.84;4939126;28;45196;-59
2022/02/19 01:03:16;;;;;;;;;1.25;0.75;;;;;5.70;79.36;100816.50;4935816;28;45554;-69
2022/02/19 01:05:42;;;;;;;;;5.50;1.00;;;;;5.75;77.98;100818.16;4938113;28;45712;-61
2022/02/19 01:08:07;;;;;;;;;4.00;0.00;;;;;5.74;78.54;100835.56;4938399;28;45385;-64
2022/02/19 01:10:34;;;;;;;;;3.00;2.00;;;;;5.72;80.53;100826.06;4938206;28;45314;-67
2022/02/19 01:12:59;;;;;;;;;5.00;2.50;;;;;5.71;77.26;100835.63;4937420;28;45427;-63
2022/02/19 01:15:25;;;;;;;;;5.00;1.25;;;;;5.68;78.91;100828.72;4938755;28;45375;-64
2022/02/19 01:17:51;;;;;;;;;6.25;3.00;;;;;5.70;78.63;100826.94;4936179;28;45473;-67
2022/02/19 01:20:16;;;;;;;;;2.50;1.00;;;;;5.68;77.08;100820.00;4930212;28;45704;-66
2022/02/19 01:22:42;;;;;;;;;3.00;1.25;;;;;5.67;78.80;100831.34;4934940;28;46840;-68
2022/02/19 01:25:10;;;;;;;;;1.00;0.25;;;;;5.62;78.96;100823.59;4936774;28;45443;-64
2022/02/19 01:27:36;;;;;;;;;3.25;1.00;;;;;5.65;79.31;100833.09;4937549;28;45283;-64
2022/02/19 01:30:01;;;;;;;;;0.50;0.00;;;;;5.62;77.64;100840.97;4937146;28;45374;-63
2022/02/19 01:32:26;;;;;;;;;2.00;0.25;;;;;5.59;78.42;100827.97;4936276;28;45282;-65
2022/02/19 01:34:52;;;;;;;;;1.00;1.00;;;;;5.56;78.47;100836.72;4936249;28;45385;-67
2022/02/19 01:37:17;;;;;;;;;1.00;1.00;;;;;5.58;79.75;100842.78;4938475;28;45577;-64
2022/02/19 01:39:44;;;;;;;;;4.75;1.00;;;;;5.58;80.31;100834.09;4938634;28;45567;-63
2022/02/19 01:42:10;;;;;;;;;2.75;1.00;;;;;5.54;79.77;100844.56;4921188;28;45497;-65
2022/02/19 01:44:37;;;;;;;;;1.00;0.75;;;;;5.54;79.63;100848.94;4923396;28;45428;-64
2022/02/19 01:47:05;;;;;;;;;3.50;0.50;;;;;5.53;80.25;100836.78;4938622;28;45422;-67
2022/02/19 01:49:30;;;;;;;;;2.50;1.00;;;;;5.53;79.67;100836.78;4939038;28;45321;-68
2022/02/19 01:51:56;;;;;;;;;10.00;5.75;;;;;5.49;79.88;100843.78;4937227;28;46289;-62
2022/02/19 01:54:21;;;;;;;;;1.75;1.00;;;;;5.49;79.87;100846.38;4938426;28;45237;-61
2022/02/19 01:56:47;;;;;;;;;3.50;1.75;;;;;5.38;80.93;100823.09;4934187;28;45425;-62
2022/02/19 01:59:12;;;;;;;;;2.00;0.00;;;;;5.50;80.72;100836.84;4919304;28;45349;-60
2022/02/19 02:01:38;;;;;;;;;2.50;1.25;;;;;5.48;80.19;100841.22;4918804;28;46426;-65
2022/02/19 02:04:04;;;;;;;;;1.00;1.00;;;;;5.46;80.83;100851.66;4928574;28;45270;-65
2022/02/19 02:06:30;;;;;;;;;2.00;0.50;;;;;5.43;79.20;100853.47;4938488;28;45551;-61
2022/02/19 02:08:58;;;;;;;;;4.25;1.00;;;;;5.40;79.93;100842.19;4936373;28;45547;-65
2022/02/19 02:11:23;;;;;;;;;1.25;0.75;;;;;5.39;81.04;100856.13;4918745;28;46310;-64
2022/02/19 02:13:49;;;;;;;;;2.00;2.00;;;;;5.40;81.55;100854.34;4918893;28;45263;-66
2022/02/19 02:16:14;;;;;;;;;3.00;1.25;;;;;5.33;81.12;100850.97;4918740;28;45213;-66
2022/02/19 02:18:43;;;;;;;;;1.25;1.00;;;;;5.35;81.53;100864.88;4920819;28;45477;-62
2022/02/19 02:21:08;;;;;;;;;3.00;0.00;;;;;5.34;80.41;100862.25;4937508;28;47118;-64
2022/02/19 02:23:34;;;;;;;;;3.25;1.00;;;;;5.33;81.83;100855.31;4937323;28;45500;-67
2022/02/19 02:26:01;;;;;;;;;1.50;0.25;;;;;5.32;80.71;100858.81;4936045;28;45322;-66
2022/02/19 02:28:27;;;;;;;;;1.00;0.25;;;;;5.24;81.91;100856.28;4937708;28;45501;-66
2022/02/19 02:30:52;;;;;;;;;2.00;1.00;;;;;5.28;82.39;100857.13;4936890;28;46159;-66
2022/02/19 02:33:19;;;;;;;;;1.00;1.00;;;;;5.21;82.06;100854.59;4936960;28;45496;-64
2022/02/19 02:35:48;;;;;;;;;1.00;1.00;;;;;5.24;82.15;100862.41;4936255;28;45389;-65
2022/02/19 02:38:14;;;;;;;;;3.50;2.00;;;;;5.23;83.24;100870.22;4937584;28;45513;-65
2022/02/19 02:40:39;;;;;;;;;2.00;1.00;;;;;5.23;82.92;100855.44;4936508;28;46043;-61
2022/02/19 02:43:05;;;;;;;;;0.75;0.75;;;;;5.20;82.99;100849.41;4937146;28;45487;-65
2022/02/19 02:45:31;;;;;;;;;3.00;1.00;;;;;5.20;83.79;100857.22;4937500;28;45375;-67
2022/02/19 02:47:56;;;;;;;;;0.00;0.00;;;;;5.19;82.59;100860.72;4937623;28;45353;-65
2022/02/19 02:50:22;;;;;;;;;0.50;0.25;;;;;5.15;82.75;100859.03;4937315;28;45612;-65
2022/02/19 02:52:47;;;;;;;;;3.50;2.00;;;;;5.11;83.56;100861.69;4936910;28;45476;-65
2022/02/19 02:55:13;;;;;;;;;4.00;2.00;;;;;5.10;83.53;100861.72;4936770;28;45460;-61
2022/02/19 02:57:39;;;;;;;;;1.00;0.25;;;;;5.11;84.35;100866.06;4937072;28;45587;-66
2022/02/19 03:00:07;;;;;;;;;2.00;1.00;;;;;5.09;83.79;100876.47;4935495;28;48050;-62
2022/02/19 03:02:34;;;;;;;;;3.25;0.00;;;;;5.07;84.02;100875.63;4937058;28;45457;-63
2022/02/19 03:05:06;;;;;;;;;3.00;1.00;;;;;5.07;84.12;100878.25;4936219;28;45341;-64
2022/02/19 03:07:32;;;;;;;;;8.25;2.75;;;;;5.06;83.86;100875.69;4937015;28;45251;-65
2022/02/19 03:09:58;;;;;;;;;1.75;1.00;;;;;5.02;84.63;100887.88;4934884;28;47637;-64
2022/02/19 03:12:24;;;;;;;;;1.50;1.00;;;;;5.04;84.80;100882.66;4936548;28;45244;-61
2022/02/19 03:14:49;;;;;;;;;4.75;1.00;;;;;5.04;83.81;100891.31;4936339;28;45389;-66
2022/02/19 03:17:15;;;;;;;;;0.00;0.00;;;;;5.03;84.30;100883.53;4936691;28;45510;-67
2022/02/19 03:19:40;;;;;;;;;2.25;0.75;;;;;4.99;84.10;100887.91;4937664;28;46358;-68
2022/02/19 03:22:06;;;;;;;;;3.50;1.25;;;;;4.97;85.31;100884.47;4936827;28;45389;-60
2022/02/19 03:24:31;;;;;;;;;5.00;2.25;;;;;4.99;85.10;100898.34;4937216;28;45517;-67
2022/02/19 03:26:58;;;;;;;;;2.00;1.00;;;;;4.97;84.80;100900.97;4937016;28;45270;-64
2022/02/19 03:29:24;;;;;;;;;2.50;1.25;;;;;4.95;85.02;100896.66;4936107;28;45504;-62
2022/02/19 03:31:50;;;;;;;;;1.50;0.00;;;;;4.95;85.22;100901.88;4936333;28;45417;-64
2022/02/19 03:34:16;;;;;;;;;1.25;1.00;;;;;4.94;85.45;100907.97;4936635;28;45469;-66
2022/02/19 03:36:42;;;;;;;;;1.75;1.75;;;;;4.94;85.30;100901.03;4936977;28;45401;-63
2022/02/19 03:39:07;;;;;;;;;2.25;1.75;;;;;4.93;85.16;100914.94;4935871;28;45531;-62
2022/02/19 03:41:34;;;;;;;;;0.00;0.00;;;;;4.91;85.30;100906.28;4936418;28;46272;-60
2022/02/19 03:44:00;;;;;;;;;3.25;0.00;;;;;4.89;85.29;100915.84;4935911;28;45290;-64
2022/02/19 03:46:25;;;;;;;;;3.75;3.00;;;;;4.88;85.83;100931.50;4936369;28;45429;-66
2022/02/19 03:48:50;;;;;;;;;1.50;0.75;;;;;4.86;84.95;100920.22;4936253;28;45310;-66
2022/02/19 03:51:16;;;;;;;;;7.50;5.00;;;;;4.83;86.12;100919.38;4935846;28;45388;-63
2022/02/19 03:53:42;;;;;;;;;0.75;0.00;;;;;4.80;84.98;100919.41;4936410;28;45414;-66
2022/02/19 03:56:07;;;;;;;;;2.00;0.25;;;;;4.80;85.21;100923.78;4934914;28;45639;-63
2022/02/19 03:58:34;;;;;;;;;2.25;1.00;;;;;4.78;85.00;100926.38;4934951;28;47101;-63
2022/02/19 04:01:00;;;;;;;;;2.75;1.00;;;;;4.74;85.22;100924.69;4936335;28;45366;-63
2022/02/19 04:03:26;;;;;;;;;4.75;0.00;;;;;4.72;85.89;100922.97;4936682;28;45171;-62
2022/02/19 04:05:51;;;;;;;;;2.75;1.25;;;;;4.74;85.92;100926.41;4936027;28;45483;-66
2022/02/19 04:08:16;;;;;;;;;3.00;1.00;;;;;4.72;86.14;100931.66;4935772;28;46245;-64
2022/02/19 04:10:42;;;;;;;;;1.50;1.00;;;;;4.71;85.98;100929.94;4935963;28;45465;-63
2022/02/19 04:13:07;;;;;;;;;1.75;0.00;;;;;4.72;85.63;100936.88;4934812;28;45515;-64
2022/02/19 04:15:33;;;;;;;;;2.25;0.00;;;;;4.70;85.26;100945.56;4936760;28;45245;-65
2022/02/19 04:17:59;;;;;;;;;1.25;0.75;;;;;4.71;85.67;100949.91;4936306;28;45989;-64
2022/02/19 04:20:25;;;;;;;;;3.00;0.75;;;;;4.68;83.74;100956.03;4936721;28;45491;-64
2022/02/19 04:22:51;;;;;;;;;2.00;1.00;;;;;4.67;85.61;100956.91;4936048;28;45416;-64
2022/02/19 04:25:16;;;;;;;;;5.50;1.00;;;;;4.60;85.44;100944.81;4935923;28;45292;-63
2022/02/19 04:27:42;;;;;;;;;1.50;1.00;;;;;4.66;86.38;100952.56;4937091;28;45346;-64
2022/02/19 04:30:08;;;;;;;;;1.00;0.50;;;;;4.66;85.94;100956.03;4939131;28;45484;-65
2022/02/19 04:32:34;;;;;;;;;1.00;1.00;;;;;4.63;85.91;100961.25;4938267;28;45269;-64
2022/02/19 04:34:59;;;;;;;;;0.75;0.25;;;;;4.63;86.09;100965.63;4939324;28;45515;-65
2022/02/19 04:37:25;;;;;;;;;1.00;0.00;;;;;4.62;86.73;100969.09;4939526;28;46026;-63
2022/02/19 04:39:51;;;;;;;;;3.50;1.25;;;;;4.61;86.67;100965.63;4939748;28;45283;-67
2022/02/19 04:42:17;;;;;;;;;5.00;1.00;;;;;4.61;86.64;100975.19;4939306;28;45280;-64
2022/02/19 04:44:42;;;;;;;;;1.00;0.00;;;;;4.58;85.18;100970.00;4940099;28;45412;-64
2022/02/19 04:47:08;;;;;;;;;4.00;1.00;;;;;4.59;86.24;100980.41;4939100;28;45557;-67
2022/02/19 04:49:33;;;;;;;;;3.25;1.00;;;;;4.55;85.56;100968.28;4939078;28;45244;-66
2022/02/19 04:51:58;;;;;;;;;2.00;0.75;;;;;4.53;86.25;100970.03;4938999;28;45405;-66
2022/02/19 04:54:24;;;;;;;;;1.00;1.00;;;;;4.52;86.32;100976.13;4940073;28;45327;-69
2022/02/19 04:56:49;;;;;;;;;1.75;1.75;;;;;4.53;86.65;100991.75;4938565;28;46439;-65
2022/02/19 04:59:14;;;;;;;;;2.00;1.00;;;;;4.56;86.78;100988.25;4938560;28;45510;-65
2022/02/19 05:01:40;;;;;;;;;3.50;0.00;;;;;4.51;86.45;100990.91;4938766;28;45345;-63
2022/02/19 05:04:07;;;;;;;;;3.75;0.00;;;;;4.55;85.99;100999.56;4939159;28;45499;-66
2022/02/19 05:06:32;;;;;;;;;3.25;1.00;;;;;4.56;85.99;100990.00;4939490;28;45538;-62
2022/02/19 05:08:58;;;;;;;;;4.00;4.00;;;;;4.50;84.97;100989.19;4939087;28;45568;-61
2022/02/19 05:11:24;;;;;;;;;0.25;0.25;;;;;4.52;85.43;100991.75;4938457;28;45254;-64
2022/02/19 05:13:49;;;;;;;;;1.75;0.75;;;;;4.49;85.47;100997.88;4939091;28;45184;-60
2022/02/19 05:16:15;;;;;;;;;5.75;1.00;;;;;4.48;85.62;101003.97;4939287;28;45458;-63
2022/02/19 05:18:40;;;;;;;;;1.25;0.25;;;;;4.47;86.09;101009.16;4939530;28;45328;-62
2022/02/19 05:21:05;;;;;;;;;2.00;0.50;;;;;4.42;85.51;101006.63;4938819;28;45768;-62
2022/02/19 05:23:31;;;;;;;;;2.00;0.75;;;;;4.45;86.37;101017.03;4939051;28;45629;-65
2022/02/19 05:25:59;;;;;;;;;1.50;0.00;;;;;4.44;86.85;101009.19;4938832;28;45432;-66
2022/02/19 05:28:24;;;;;;;;;1.75;1.00;;;;;4.43;86.36;101020.50;4938494;28;45486;-65
2022/02/19 05:30:49;;;;;;;;;4.00;1.00;;;;;4.43;86.89;101013.56;4937110;28;45377;-65
2022/02/19 05:33:15;;;;;;;;;3.00;0.25;;;;;4.43;86.57;101018.78;4939513;28;45493;-65
2022/02/19 05:35:40;;;;;;;;;0.25;0.25;;;;;4.40;86.17;101008.38;4938768;28;45805;-63
2022/02/19 05:38:05;;;;;;;;;3.75;0.25;;;;;4.42;86.86;101008.34;4936826;28;45316;-65
2022/02/19 05:40:31;;;;;;;;;1.00;1.00;;;;;4.40;87.32;101010.97;4939241;28;45533;-67
2022/02/19 05:42:56;;;;;;;;;1.75;1.00;;;;;4.38;86.96;101013.59;4938577;28;45484;-65
2022/02/19 05:45:22;;;;;;;;;2.00;0.50;;;;;4.40;86.59;101008.38;4938806;28;46308;-62
2022/02/19 05:47:47;;;;;;;;;3.75;1.00;;;;;4.35;86.60;101010.16;4938164;28;45357;-64
2022/02/19 05:50:12;;;;;;;;;2.00;0.00;;;;;4.37;86.24;101013.59;4938678;28;45345;-64
2022/02/19 05:52:38;;;;;;;;;1.50;1.25;;;;;4.36;86.53;101009.28;4938179;28;45519;-63
2022/02/19 05:55:04;;;;;;;;;1.00;1.00;;;;;4.33;86.93;101007.53;4936910;28;47202;-64
2022/02/19 05:57:29;;;;;;;;;1.75;0.00;;;;;4.32;86.12;101005.81;4937566;28;45381;-63
2022/02/19 05:59:54;;;;;;;;;2.25;1.00;;;;;4.33;86.05;101011.91;4937674;28;45293;-65
2022/02/19 06:02:20;;;;;;;;;11.50;1.00;;;;;4.28;86.64;100996.28;4938258;28;45166;-63
2022/02/19 06:04:45;;;;;;;;;2.50;0.00;;;;;4.31;85.86;101004.09;4937622;28;45441;-65
2022/02/19 06:07:10;;;;;;;;;3.00;1.00;;;;;4.29;86.65;101005.00;4937853;28;45377;-64
2022/02/19 06:09:36;;;;;;;;;1.00;1.00;;;;;4.31;85.35;101014.50;4937638;28;45538;-65
2022/02/19 06:12:02;;;;;;;;;2.00;1.00;;;;;4.29;86.37;100997.19;4938032;28;45560;-67
2022/02/19 06:14:27;;;;;;;;;3.25;0.25;;;;;4.30;86.25;101004.13;4937983;28;46104;-66
2022/02/19 06:16:53;;;;;;;;;2.00;1.25;;;;;4.30;86.68;101004.13;4938079;28;45232;-64
2022/02/19 06:19:23;;;;;;;;;3.00;0.50;;;;;4.33;86.45;101004.09;4936361;28;45407;-62
2022/02/19 06:21:48;;;;;;;;;1.00;1.00;;;;;4.32;86.36;101015.38;4936834;28;45375;-62
2022/02/19 06:24:14;;;;;;;;;2.25;1.00;;;;;4.33;86.64;101014.50;4938090;28;46110;-61
2022/02/19 06:26:40;;;;;;;;;1.00;0.00;;;;;4.27;86.75;101009.34;4938306;28;45184;-67
2022/02/19 06:29:08;;;;;;;;;1.00;0.50;;;;;4.25;86.26;101017.16;4936238;28;45531;-63
2022/02/19 06:31:34;;;;;;;;;6.00;0.00;;;;;4.27;86.93;101007.59;4938781;28;45564;-61
2022/02/19 06:33:59;;;;;;;;;0.75;0.75;;;;;4.30;87.02;101017.97;4936095;28;48249;-61
2022/02/19 06:36:24;;;;;;;;;3.00;0.50;;;;;4.30;87.21;101023.19;4938033;28;45492;-64
2022/02/19 06:38:53;;;;;;;;;2.25;1.00;;;;;4.30;87.42;101028.41;4937698;28;45433;-62
2022/02/19 06:41:19;;;;;;;;;4.00;1.00;;;;;4.30;86.70;101032.75;4938293;28;45492;-62
2022/02/19 06:43:45;;;;;;;;;4.00;2.00;;;;;4.27;86.95;101038.00;4937658;28;46100;-62
2022/02/19 06:46:10;;;;;;;;;1.00;1.00;;;;;4.26;86.80;101041.47;4937700;28;45271;-62
2022/02/19 06:48:36;;;;;;;;;2.00;1.00;;;;;4.27;85.12;101057.06;4936584;28;45434;-61
2022/02/19 06:51:01;;;;;;;;;2.75;1.00;;;;;4.21;85.88;101054.50;4935272;28;45650;-63
2022/02/19 06:53:27;;;;;;;;;1.75;0.50;;;;;4.23;86.40;101064.03;4936809;28;45391;-65
2022/02/19 06:55:52;;;;;;;;;3.00;1.50;;;;;4.20;87.22;101053.63;4935959;28;45349;-64
2022/02/19 06:58:18;;;;;;;;;1.75;1.00;;;;;4.22;86.22;101072.72;4937630;28;45332;-63
2022/02/19 07:00:43;;;;;;;;;0.75;0.75;;;;;4.21;87.02;101072.72;4937476;28;45599;-62
2022/02/19 07:03:09;;;;;;;;;5.25;1.75;;;;;4.24;86.48;101083.13;4933983;28;46103;-61
2022/02/19 07:05:34;;;;;;;;;3.00;2.00;;;;;4.23;85.97;101074.44;4935480;28;45390;-68
2022/02/19 07:08:00;;;;;;;;;4.00;1.00;;;;;4.22;87.46;101083.13;4936945;28;45383;-64
2022/02/19 07:10:27;;;;;;;;;3.00;1.00;;;;;4.24;87.26;101088.34;4937648;28;45377;-66
2022/02/19 07:12:53;;;;;;;;;3.25;1.00;;;;;4.26;87.40;101084.00;4937375;28;46669;-66
2022/02/19 07:15:20;;;;;;;;;3.50;1.00;;;;;4.25;86.17;101097.88;4936661;28;45411;-64
2022/02/19 07:17:51;;;;;;;;;2.00;1.00;;;;;4.27;86.76;101101.34;4937140;28;45437;-62
2022/02/19 07:20:20;;;;;;;;;3.25;1.00;;;;;4.28;85.83;101097.00;4937424;28;45518;-62
2022/02/19 07:22:45;;;;;;;;;1.50;0.25;;;;;4.28;87.04;101097.00;4936150;28;46578;-62
2022/02/19 07:25:11;;;;;;;;;5.00;1.00;;;;;4.29;86.66;101098.75;4936892;28;45296;-65
2022/02/19 07:27:41;;;;;;;;;6.25;2.25;;;;;4.31;86.63;101095.25;4935047;28;45398;-64
2022/02/19 07:30:09;;;;;;;;;1.00;1.00;;;;;4.31;86.20;101103.06;4937482;28;45432;-66
2022/02/19 07:32:36;;;;;;;;;6.00;1.00;;;;;4.31;86.15;101112.63;4936057;28;45577;-60
2022/02/19 07:35:02;;;;;;;;;5.25;2.00;;;;;4.32;86.71;101114.34;4936027;28;45187;-64
2022/02/19 07:37:27;;;;;;;;;2.00;1.00;;;;;4.29;86.64;101109.16;4936626;28;45263;-68
2022/02/19 07:39:53;;;;;;;;;1.00;1.00;;;;;4.35;85.93;101111.72;4936483;28;46283;-60
2022/02/19 07:42:18;;;;;;;;;1.00;1.00;;;;;4.37;86.77;101120.41;4936087;28;47860;-64
2022/02/19 07:44:43;;;;;;;;;1.25;1.00;;;;;4.38;86.85;101125.59;4935959;28;45323;-67
2022/02/19 07:47:09;;;;;;;;;3.00;1.50;;;;;4.40;86.74;101125.59;4935912;28;45183;-65
2022/02/19 08:00:30;;;;;;;;;1.75;1.75;;;;;4.48;85.83;101149.84;4937491;28;45203;-64
2022/02/19 08:02:56;;;;;;;;;1.00;1.00;;;;;4.52;85.82;101155.91;4939613;28;50020;-68
2022/02/19 08:05:21;;;;;;;;;3.00;0.25;;;;;4.53;85.93;101152.41;4939987;28;45407;-67
2022/02/19 08:07:46;;;;;;;;;4.00;1.25;;;;;4.48;85.38;101154.19;4939741;28;45334;-66
2022/02/19 08:10:12;;;;;;;;;1.00;1.00;;;;;4.50;85.25;101155.03;4939755;28;45644;-63
2022/02/19 08:12:38;;;;;;;;;3.00;1.50;;;;;4.56;85.80;101160.22;4939780;28;45309;-66
2022/02/19 08:15:04;;;;;;;;;5.25;2.00;;;;;4.61;85.63;101163.66;4938779;28;45343;-69
2022/02/19 08:17:31;;;;;;;;;2.00;1.50;;;;;4.65;85.68;101164.53;4939666;28;45544;-65
2022/02/19 08:19:57;;;;;;;;;2.25;2.00;;;;;4.65;85.80;101154.94;4940576;28;45330;-69
2022/02/19 08:22:23;;;;;;;;;4.00;2.00;;;;;4.70;85.38;101160.16;4939157;28;46181;-71
2022/02/19 08:24:48;;;;;;;;;4.00;1.50;;;;;4.72;85.14;101158.38;4940058;28;45358;-67
2022/02/19 08:27:13;;;;;;;;;5.50;2.00;;;;;4.75;85.56;101152.28;4939831;28;45504;-69
2022/02/19 08:29:39;;;;;;;;;1.00;1.00;;;;;4.79;86.16;101161.84;4940209;28;45607;-65
2022/02/19 08:32:05;;;;;;;;;2.00;2.00;;;;;4.78;85.24;101152.28;4939220;28;46120;-66
2022/02/19 08:34:30;;;;;;;;;3.75;2.00;;;;;4.86;85.57;101152.22;4938728;28;45586;-65
2022/02/19 08:36:56;;;;;;;;;3.50;1.75;;;;;4.89;85.50;101160.00;4922399;28;45275;-66
2022/02/19 08:39:25;;;;;;;;;5.00;1.50;;;;;4.93;85.58;101159.13;4936668;28;45562;-63
2022/02/19 08:41:51;;;;;;;;;1.75;1.00;;;;;4.96;85.42;101159.09;4937944;28;46619;-70
2022/02/19 08:44:16;;;;;;;;;4.75;3.25;;;;;5.03;86.02;101166.00;4939133;28;45397;-66
2022/02/19 08:46:42;;;;;;;;;2.00;2.00;;;;;5.08;85.38;101163.34;4937814;28;45547;-68
2022/02/19 08:49:07;;;;;;;;;7.75;3.75;;;;;5.12;85.22;101173.75;4938926;28;45588;-66
2022/02/19 08:51:33;;;;;;;;;1.25;1.25;;;;;5.20;84.77;101173.69;4937594;28;46896;-64
2022/02/19 08:53:58;;;;;;;;;7.75;4.50;;;;;5.24;85.11;101172.78;4938185;28;45468;-68
2022/02/19 08:56:24;;;;;;;;;3.50;1.75;;;;;5.30;84.93;101174.50;4938617;28;45487;-62
2022/02/19 08:58:49;;;;;;;;;2.50;2.00;;;;;5.34;84.84;101178.81;4939704;28;45183;-64
2022/02/19 09:01:15;;;;;;;;;5.00;1.00;;;;;5.29;84.32;101164.06;4938838;28;46020;-62
2022/02/19 09:03:40;;;;;;;;;1.50;1.00;;;;;5.44;83.95;101182.19;4937335;28;45263;-64
2022/02/19 09:06:06;;;;;;;;;6.25;1.50;;;;;5.48;83.20;101180.41;4935546;28;45389;-63
2022/02/19 09:08:31;;;;;;;;;3.25;2.00;;;;;5.48;83.99;101176.03;4938594;28;45164;-65
2022/02/19 09:10:57;;;;;;;;;2.25;2.00;;;;;5.51;83.53;101173.41;4938102;28;45485;-69
2022/02/19 09:13:22;;;;;;;;;4.00;2.75;;;;;5.63;83.92;101187.22;4937421;28;45372;-69
2022/02/19 09:15:49;;;;;;;;;3.50;1.50;;;;;5.63;82.89;101184.59;4937574;28;45626;-67
2022/02/19 09:18:15;;;;;;;;;8.00;3.00;;;;;5.70;83.21;101192.38;4938946;28;45479;-62
2022/02/19 09:20:41;;;;;;;;;6.00;4.00;;;;;5.75;82.88;101191.47;4938299;28;45584;-63
2022/02/19 09:23:06;;;;;;;;;4.50;2.00;;;;;5.83;82.39;101185.28;4937312;28;45904;-68
2022/02/19 09:25:32;;;;;;;;;7.00;2.50;;;;;5.90;82.61;101180.84;4938435;28;45504;-68
2022/02/19 09:27:57;;;;;;;;;6.50;2.50;;;;;5.97;81.88;101186.88;4938832;28;45235;-67
2022/02/19 09:30:23;;;;;;;;;3.00;2.00;;;;;6.02;81.76;101184.22;4939302;28;45393;-67
2022/02/19 09:32:49;;;;;;;;;2.25;2.00;;;;;5.98;81.29;101163.34;4938980;28;45469;-63
2022/02/19 09:35:15;;;;;;;;;2.75;1.25;;;;;6.07;81.01;101172.88;4937805;28;45493;-67
2022/02/19 09:37:42;;;;;;;;;6.25;3.00;;;;;6.10;81.59;101170.22;4938092;28;45521;-64
2022/02/19 09:40:10;;;;;;;;;2.25;1.75;;;;;6.20;81.89;101184.00;4936490;28;47743;-68
2022/02/19 09:42:36;;;;;;;;;5.75;4.00;;;;;6.23;81.08;101168.28;4938812;28;45525;-69
2022/02/19 09:45:03;;;;;;;;;3.50;2.00;;;;;6.29;81.22;101170.81;4938689;28;45420;-66
2022/02/19 09:47:30;;;;;;;;;3.00;3.00;;;;;6.37;81.10;101164.66;4939442;28;45465;-70
2022/02/19 09:49:57;;;;;;;;;3.00;2.00;;;;;6.48;81.58;101172.34;4938693;28;46640;-69
2022/02/19 09:52:25;;;;;;;;;2.25;1.50;;;;;6.54;78.96;101173.13;4938116;28;45458;-66
2022/02/19 09:54:52;;;;;;;;;3.50;3.00;;;;;6.60;80.06;101173.94;4937898;28;45387;-68
2022/02/19 09:57:18;;;;;;;;;4.50;2.00;;;;;6.61;79.52;101179.13;4937657;28;45968;-65
2022/02/19 09:59:44;;;;;;;;;4.00;1.25;;;;;6.64;78.95;101166.00;4936099;28;47252;-69
2022/02/19 10:02:09;;;;;;;;;18.75;18.50;;;;;6.73;79.90;101171.09;4936219;28;45352;-67
2022/02/19 10:04:36;;;;;;;;;4.00;3.50;;;;;6.81;79.33;101176.25;4938129;28;45276;-65
2022/02/19 10:07:18;;;;;;;;;6.50;3.00;;;;;6.89;78.48;101173.50;4936805;28;45593;-65
2022/02/19 10:09:49;;;;;;;;;6.00;3.00;;;;;6.96;78.17;101169.91;4937268;28;45735;-60
2022/02/19 10:12:16;;;;;;;;;6.00;2.25;;;;;7.02;78.61;101163.72;4924888;28;45375;-61
2022/02/19 10:14:43;;;;;;;;;2.00;2.00;;;;;7.07;78.08;101159.25;4938178;28;45502;-68
2022/02/19 10:17:23;;;;;;;;;7.00;2.50;;;;;7.19;78.97;101159.94;4938041;28;45476;-68
2022/02/19 10:19:51;;;;;;;;;2.00;1.75;;;;;7.27;78.43;101148.47;4935524;28;47152;-68
2022/02/19 10:22:19;;;;;;;;;2.25;2.00;;;;;7.41;78.22;101157.84;4937629;28;45341;-65
2022/02/19 10:24:47;;;;;;;;;2.25;2.25;;;;;7.52;77.07;101153.28;4936348;28;45369;-71
2022/02/19 10:27:13;;;;;;;;;2.00;1.00;;;;;7.62;76.69;101151.38;4937785;28;45275;-68
2022/02/19 10:29:55;;;;;;;;;5.25;2.00;;;;;7.75;76.26;101139.75;4935673;28;47266;-68
2022/02/19 10:32:22;;;;;;;;;9.25;5.00;;;;;7.86;74.79;101146.53;4937194;28;45363;-69
2022/02/19 10:35:05;;;;;;;;;3.00;3.00;;;;;7.94;74.19;101152.47;4937103;28;45456;-66
2022/02/19 10:37:43;;;;;;;;;5.75;3.50;;;;;8.01;74.28;101156.72;4937225;28;45505;-67
2022/02/19 10:40:25;;;;;;;;;4.75;3.25;;;;;8.09;74.64;101146.09;4935101;28;46405;-68
2022/02/19 10:42:54;;;;;;;;;8.50;1.50;;;;;8.16;73.86;101141.56;4936937;28;45195;-66
2022/02/19 10:45:20;;;;;;;;;1.75;1.75;;;;;8.26;73.41;101147.47;4936274;28;45378;-72
2022/02/19 10:47:45;;;;;;;;;4.00;3.00;;;;;8.37;73.10;101153.34;4936976;28;45523;-62
2022/02/19 10:50:16;;;;;;;;;20.75;19.25;;;;;8.50;73.67;101148.75;4936420;28;46410;-66
2022/02/19 10:52:43;;;;;;;;;3.75;3.00;;;;;8.64;73.02;101142.31;4937140;28;45461;-66
2022/02/19 10:55:14;;;;;;;;;7.50;3.50;;;;;8.76;71.14;101140.25;4918855;28;45297;-69
2022/02/19 10:57:42;;;;;;;;;4.00;3.50;;;;;8.87;71.49;101132.16;4930410;28;45449;-66
2022/02/19 11:00:20;;;;;;;;;4.50;3.00;;;;;8.98;69.03;101136.25;4935775;28;46257;-67
2022/02/19 11:02:47;;;;;;;;;3.75;2.00;;;;;9.01;69.61;101138.81;4933164;28;45424;-69
2022/02/19 11:05:14;;;;;;;;;3.00;2.00;;;;;9.02;70.50;101140.53;4936440;28;45350;-69
2022/02/19 11:07:41;;;;;;;;;1.25;1.25;;;;;9.02;69.06;101145.78;4936711;28;45367;-66
2022/02/19 11:10:09;;;;;;;;;3.00;1.75;;;;;9.02;68.31;101145.78;4936230;28;46576;-69
2022/02/19 11:12:35;;;;;;;;;8.25;5.25;;;;;8.99;69.17;101143.25;4935745;28;45476;-66
2022/02/19 11:15:02;;;;;;;;;13.75;11.75;;;;;9.00;69.91;101129.22;4935606;28;45546;-74
2022/02/19 11:17:29;;;;;;;;;5.50;3.75;;;;;9.09;69.40;101147.34;4938306;28;45573;-72
2022/02/19 11:19:59;;;;;;;;;3.50;2.00;;;;;9.12;66.80;101136.78;4937230;28;46661;-74
2022/02/19 11:22:29;;;;;;;;;4.75;3.00;;;;;9.14;67.59;101131.50;4937033;28;45365;-58
2022/02/19 11:24:55;;;;;;;;;2.00;2.00;;;;;9.12;68.29;101128.91;4926549;28;45325;-64
2022/02/19 11:27:21;;;;;;;;;3.25;3.00;;;;;9.14;67.46;101123.63;4934217;28;45655;-71
2022/02/19 11:29:48;;;;;;;;;6.00;6.00;;;;;9.23;65.20;101122.53;4938455;28;47233;-67
2022/02/19 11:32:16;;;;;;;;;2.50;2.00;;;;;9.33;67.58;101129.25;4920739;28;45394;-72
2022/02/19 11:34:47;;;;;;;;;3.50;3.00;;;;;9.39;68.08;101108.09;4918392;28;45279;-67
2022/02/19 11:37:18;;;;;;;;;2.50;2.50;;;;;9.46;64.23;101109.63;4918215;28;45359;-67
2022/02/19 11:40:08;;;;;;;;;2.50;1.00;;;;;9.51;65.63;101106.91;4932899;28;48509;-66